Lyndora, Pennsylvania
Current Conditions -  °F | °C
As of 3:55 AM on Thursday 23 Oct 2014 (Local Time) from KBTP Reporting Station
Broken Clouds Broken Clouds  
Wind Chill: 36°   Ceiling: 1700
Heat Index: 39°   Visibility: 10mi
Dew Point: 37°   Wind: 5mph
Humidity: 93%   Direction: 270°W
Pressure: 30.13"   Gusts: NA
Location:  40.85°N, 79.93°W
Report Text: KBTP 230755Z AUTO 27004KT 10SM BKN017 BKN026 04/03 A3013 RMK AO1
Loading
Personal Weather Stations






























Interactive Weather Map
Tropical Storm Tracking
New forecast layout! Learn more

10-Day Weather Forecast

Advertisements
Track Severe Weather on mobile